sensor_id;sensor_type;location;lat;lon;timestamp;temperature;humidity
39453;DHT22;25154;-33.684;151.102;2022-10-17T00:01:22;17.10;99.90
39453;DHT22;25154;-33.684;151.102;2022-10-17T00:06:25;17.40;99.90
39453;DHT22;25154;-33.684;151.102;2022-10-17T00:11:28;17.70;99.90
39453;DHT22;25154;-33.684;151.102;2022-10-17T00:16:33;17.80;99.90
39453;DHT22;25154;-33.684;151.102;2022-10-17T00:21:37;18.20;99.90
39453;DHT22;25154;-33.684;151.102;2022-10-17T00:26:39;18.30;99.90
39453;DHT22;25154;-33.684;151.102;2022-10-17T00:31:41;18.60;99.90
39453;DHT22;25154;-33.684;151.102;2022-10-17T00:36:44;18.60;99.90
39453;DHT22;25154;-33.684;151.102;2022-10-17T00:41:46;18.60;99.90
39453;DHT22;25154;-33.684;151.102;2022-10-17T00:46:48;18.40;99.90
39453;DHT22;25154;-33.684;151.102;2022-10-17T00:52:02;18.30;99.90
39453;DHT22;25154;-33.684;151.102;2022-10-17T00:57:06;18.10;99.90
39453;DHT22;25154;-33.684;151.102;2022-10-17T01:02:12;18.20;99.90
39453;DHT22;25154;-33.684;151.102;2022-10-17T01:07:17;18.20;99.90
39453;DHT22;25154;-33.684;151.102;2022-10-17T01:12:31;18.40;99.90
39453;DHT22;25154;-33.684;151.102;2022-10-17T01:34:02;17.90;99.90
39453;DHT22;25154;-33.684;151.102;2022-10-17T01:49:39;17.90;99.90
39453;DHT22;25154;-33.684;151.102;2022-10-17T01:54:55;17.90;99.90
39453;DHT22;25154;-33.684;151.102;2022-10-17T02:00:03;18.10;99.90
39453;DHT22;25154;-33.684;151.102;2022-10-17T02:05:07;18.50;99.90
39453;DHT22;25154;-33.684;151.102;2022-10-17T02:10:18;19.00;99.90
39453;DHT22;25154;-33.684;151.102;2022-10-17T02:16:05;19.80;99.90
39453;DHT22;25154;-33.684;151.102;2022-10-17T02:21:59;20.60;99.90
39453;DHT22;25154;-33.684;151.102;2022-10-17T02:32:06;22.20;99.90
39453;DHT22;25154;-33.684;151.102;2022-10-17T02:37:12;22.50;99.90
39453;DHT22;25154;-33.684;151.102;2022-10-17T02:42:17;23.30;99.90
39453;DHT22;25154;-33.684;151.102;2022-10-17T02:47:26;23.90;99.90
39453;DHT22;25154;-33.684;151.102;2022-10-17T02:53:11;23.30;99.90
39453;DHT22;25154;-33.684;151.102;2022-10-17T02:58:19;22.40;99.90
39453;DHT22;25154;-33.684;151.102;2022-10-17T03:03:25;22.50;99.90
39453;DHT22;25154;-33.684;151.102;2022-10-17T03:08:28;22.30;99.90
39453;DHT22;25154;-33.684;151.102;2022-10-17T03:13:32;22.80;99.90
39453;DHT22;25154;-33.684;151.102;2022-10-17T03:18:35;22.90;99.90
39453;DHT22;25154;-33.684;151.102;2022-10-17T03:23:38;22.00;99.90
39453;DHT22;25154;-33.684;151.102;2022-10-17T03:28:41;22.10;99.90
39453;DHT22;25154;-33.684;151.102;2022-10-17T03:33:43;22.70;99.90
39453;DHT22;25154;-33.684;151.102;2022-10-17T03:38:46;21.70;99.90
39453;DHT22;25154;-33.684;151.102;2022-10-17T03:43:51;21.40;99.90
39453;DHT22;25154;-33.684;151.102;2022-10-17T03:48:54;21.30;99.90
39453;DHT22;25154;-33.684;151.102;2022-10-17T03:53:57;21.20;99.90
39453;DHT22;25154;-33.684;151.102;2022-10-17T03:59:01;21.90;99.90
39453;DHT22;25154;-33.684;151.102;2022-10-17T04:04:04;21.90;99.90
39453;DHT22;25154;-33.684;151.102;2022-10-17T04:09:07;21.60;99.90
39453;DHT22;25154;-33.684;151.102;2022-10-17T04:14:11;21.30;99.90
39453;DHT22;25154;-33.684;151.102;2022-10-17T04:19:15;21.10;99.90
39453;DHT22;25154;-33.684;151.102;2022-10-17T04:24:17;22.30;99.90
39453;DHT22;25154;-33.684;151.102;2022-10-17T04:29:20;23.60;99.90
39453;DHT22;25154;-33.684;151.102;2022-10-17T04:34:23;23.20;99.90
39453;DHT22;25154;-33.684;151.102;2022-10-17T04:39:26;22.20;99.90
39453;DHT22;25154;-33.684;151.102;2022-10-17T04:44:29;22.50;99.90
39453;DHT22;25154;-33.684;151.102;2022-10-17T04:49:32;24.30;99.90
39453;DHT22;25154;-33.684;151.102;2022-10-17T04:54:35;25.80;99.90
39453;DHT22;25154;-33.684;151.102;2022-10-17T04:59:37;24.50;99.90
39453;DHT22;25154;-33.684;151.102;2022-10-17T05:04:40;22.80;99.90
39453;DHT22;25154;-33.684;151.102;2022-10-17T05:09:43;21.40;99.90
39453;DHT22;25154;-33.684;151.102;2022-10-17T05:14:46;20.60;99.90
39453;DHT22;25154;-33.684;151.102;2022-10-17T05:19:48;20.10;99.90
39453;DHT22;25154;-33.684;151.102;2022-10-17T05:24:51;19.50;99.90
39453;DHT22;25154;-33.684;151.102;2022-10-17T05:29:54;19.00;99.90
39453;DHT22;25154;-33.684;151.102;2022-10-17T05:34:57;18.60;99.90
39453;DHT22;25154;-33.684;151.102;2022-10-17T05:40:00;18.10;99.90
39453;DHT22;25154;-33.684;151.102;2022-10-17T05:45:03;17.90;99.90
39453;DHT22;25154;-33.684;151.102;2022-10-17T05:50:06;17.80;99.90
39453;DHT22;25154;-33.684;151.102;2022-10-17T05:55:09;17.50;99.90
39453;DHT22;25154;-33.684;151.102;2022-10-17T06:00:12;17.10;99.90
39453;DHT22;25154;-33.684;151.102;2022-10-17T06:10:26;17.10;99.90
39453;DHT22;25154;-33.684;151.102;2022-10-17T06:15:28;17.30;99.90
39453;DHT22;25154;-33.684;151.102;2022-10-17T06:20:31;17.50;99.90
39453;DHT22;25154;-33.684;151.102;2022-10-17T06:25:34;17.40;99.90
39453;DHT22;25154;-33.684;151.102;2022-10-17T06:30:40;17.20;99.90
39453;DHT22;25154;-33.684;151.102;2022-10-17T06:35:43;17.10;99.90
39453;DHT22;25154;-33.684;151.102;2022-10-17T06:40:51;17.10;99.90
39453;DHT22;25154;-33.684;151.102;2022-10-17T06:45:59;16.90;99.90
39453;DHT22;25154;-33.684;151.102;2022-10-17T06:51:03;16.90;99.90
39453;DHT22;25154;-33.684;151.102;2022-10-17T06:56:07;17.00;99.90
39453;DHT22;25154;-33.684;151.102;2022-10-17T07:01:12;16.90;99.90
39453;DHT22;25154;-33.684;151.102;2022-10-17T07:06:15;16.90;99.90
39453;DHT22;25154;-33.684;151.102;2022-10-17T07:11:20;17.30;99.90
39453;DHT22;25154;-33.684;151.102;2022-10-17T07:16:23;17.00;99.90
39453;DHT22;25154;-33.684;151.102;2022-10-17T07:21:26;16.50;99.90
39453;DHT22;25154;-33.684;151.102;2022-10-17T07:26:28;16.40;99.90
39453;DHT22;25154;-33.684;151.102;2022-10-17T07:31:31;16.40;99.90
39453;DHT22;25154;-33.684;151.102;2022-10-17T07:36:34;16.40;99.90
39453;DHT22;25154;-33.684;151.102;2022-10-17T07:41:37;16.60;99.90
39453;DHT22;25154;-33.684;151.102;2022-10-17T07:46:40;16.70;99.90
39453;DHT22;25154;-33.684;151.102;2022-10-17T07:51:43;16.40;99.90
39453;DHT22;25154;-33.684;151.102;2022-10-17T07:56:46;16.10;99.90
39453;DHT22;25154;-33.684;151.102;2022-10-17T08:01:54;15.90;99.90
39453;DHT22;25154;-33.684;151.102;2022-10-17T08:06:57;15.70;99.90
39453;DHT22;25154;-33.684;151.102;2022-10-17T08:12:01;15.60;99.90
39453;DHT22;25154;-33.684;151.102;2022-10-17T08:17:03;15.50;99.90
39453;DHT22;25154;-33.684;151.102;2022-10-17T08:22:07;15.30;99.90
39453;DHT22;25154;-33.684;151.102;2022-10-17T08:27:09;15.20;99.90
39453;DHT22;25154;-33.684;151.102;2022-10-17T08:32:14;15.10;99.90
39453;DHT22;25154;-33.684;151.102;2022-10-17T08:37:17;15.00;99.90
39453;DHT22;25154;-33.684;151.102;2022-10-17T08:42:49;15.00;99.90
39453;DHT22;25154;-33.684;151.102;2022-10-17T08:48:00;14.80;99.90
39453;DHT22;25154;-33.684;151.102;2022-10-17T08:58:15;14.40;99.90
39453;DHT22;25154;-33.684;151.102;2022-10-17T09:03:30;14.30;99.90
39453;DHT22;25154;-33.684;151.102;2022-10-17T09:14:03;13.90;99.90
39453;DHT22;25154;-33.684;151.102;2022-10-17T09:19:23;13.80;99.90
39453;DHT22;25154;-33.684;151.102;2022-10-17T09:24:46;13.70;99.90
39453;DHT22;25154;-33.684;151.102;2022-10-17T09:30:00;13.60;99.90
39453;DHT22;25154;-33.684;151.102;2022-10-17T09:35:15;13.60;99.90
39453;DHT22;25154;-33.684;151.102;2022-10-17T09:40:27;13.50;99.90
39453;DHT22;25154;-33.684;151.102;2022-10-17T09:45:34;13.50;99.90
39453;DHT22;25154;-33.684;151.102;2022-10-17T09:50:41;13.60;99.90
39453;DHT22;25154;-33.684;151.102;2022-10-17T09:55:47;13.70;99.90
39453;DHT22;25154;-33.684;151.102;2022-10-17T10:00:53;13.90;99.90
39453;DHT22;25154;-33.684;151.102;2022-10-17T10:06:18;14.00;99.90
39453;DHT22;25154;-33.684;151.102;2022-10-17T10:12:15;14.20;99.90
39453;DHT22;25154;-33.684;151.102;2022-10-17T10:16:50;14.30;99.90
39453;DHT22;25154;-33.684;151.102;2022-10-17T10:22:00;14.40;99.90
39453;DHT22;25154;-33.684;151.102;2022-10-17T10:27:04;14.50;99.90
39453;DHT22;25154;-33.684;151.102;2022-10-17T10:42:34;14.70;99.90
39453;DHT22;25154;-33.684;151.102;2022-10-17T10:47:37;14.70;99.90
39453;DHT22;25154;-33.684;151.102;2022-10-17T10:52:46;14.70;99.90
39453;DHT22;25154;-33.684;151.102;2022-10-17T10:57:54;14.70;99.90
39453;DHT22;25154;-33.684;151.102;2022-10-17T11:08:20;14.70;99.90
39453;DHT22;25154;-33.684;151.102;2022-10-17T11:13:33;14.70;99.90
39453;DHT22;25154;-33.684;151.102;2022-10-17T11:24:21;14.60;99.90
39453;DHT22;25154;-33.684;151.102;2022-10-17T11:29:29;14.60;99.90
39453;DHT22;25154;-33.684;151.102;2022-10-17T11:34:39;14.60;99.90
39453;DHT22;25154;-33.684;151.102;2022-10-17T11:39:53;14.60;99.90
39453;DHT22;25154;-33.684;151.102;2022-10-17T11:45:09;14.50;99.90
39453;DHT22;25154;-33.684;151.102;2022-10-17T11:50:24;14.40;99.90
39453;DHT22;25154;-33.684;151.102;2022-10-17T11:55:29;14.20;99.90
39453;DHT22;25154;-33.684;151.102;2022-10-17T12:16:43;14.00;99.90
39453;DHT22;25154;-33.684;151.102;2022-10-17T12:21:58;14.00;99.90
39453;DHT22;25154;-33.684;151.102;2022-10-17T12:32:33;12.60;99.90
39453;DHT22;25154;-33.684;151.102;2022-10-17T12:42:54;13.10;99.90
39453;DHT22;25154;-33.684;151.102;2022-10-17T12:47:57;13.00;99.90
39453;DHT22;25154;-33.684;151.102;2022-10-17T12:53:04;12.80;99.90
39453;DHT22;25154;-33.684;151.102;2022-10-17T12:58:14;12.70;99.90
39453;DHT22;25154;-33.684;151.102;2022-10-17T13:03:27;12.60;99.90
39453;DHT22;25154;-33.684;151.102;2022-10-17T13:08:38;12.60;99.90
39453;DHT22;25154;-33.684;151.102;2022-10-17T13:13:49;12.50;99.90
39453;DHT22;25154;-33.684;151.102;2022-10-17T13:18:53;12.40;99.90
39453;DHT22;25154;-33.684;151.102;2022-10-17T13:23:56;12.40;99.90
39453;DHT22;25154;-33.684;151.102;2022-10-17T13:29:04;12.40;99.90
39453;DHT22;25154;-33.684;151.102;2022-10-17T13:39:27;12.30;99.90
39453;DHT22;25154;-33.684;151.102;2022-10-17T13:44:35;12.20;99.90
39453;DHT22;25154;-33.684;151.102;2022-10-17T13:49:42;12.30;99.90
39453;DHT22;25154;-33.684;151.102;2022-10-17T13:54:48;12.20;99.90
39453;DHT22;25154;-33.684;151.102;2022-10-17T14:10:22;11.90;99.90
39453;DHT22;25154;-33.684;151.102;2022-10-17T14:15:31;11.80;99.90
39453;DHT22;25154;-33.684;151.102;2022-10-17T14:20:36;11.80;99.90
39453;DHT22;25154;-33.684;151.102;2022-10-17T14:25:40;11.70;99.90
39453;DHT22;25154;-33.684;151.102;2022-10-17T14:30:47;11.60;99.90
39453;DHT22;25154;-33.684;151.102;2022-10-17T14:35:56;11.50;99.90
39453;DHT22;25154;-33.684;151.102;2022-10-17T14:41:02;11.40;99.90
39453;DHT22;25154;-33.684;151.102;2022-10-17T14:46:10;11.40;99.90
39453;DHT22;25154;-33.684;151.102;2022-10-17T14:51:16;11.50;99.90
39453;DHT22;25154;-33.684;151.102;2022-10-17T14:56:25;11.50;99.90
39453;DHT22;25154;-33.684;151.102;2022-10-17T15:01:29;11.40;99.90
39453;DHT22;25154;-33.684;151.102;2022-10-17T15:06:34;11.40;99.90
39453;DHT22;25154;-33.684;151.102;2022-10-17T15:11:38;11.40;99.90
39453;DHT22;25154;-33.684;151.102;2022-10-17T15:16:40;11.20;99.90
39453;DHT22;25154;-33.684;151.102;2022-10-17T15:21:43;11.20;99.90
39453;DHT22;25154;-33.684;151.102;2022-10-17T15:26:46;11.00;99.90
39453;DHT22;25154;-33.684;151.102;2022-10-17T15:31:50;11.00;99.90
39453;DHT22;25154;-33.684;151.102;2022-10-17T15:36:53;11.00;99.90
39453;DHT22;25154;-33.684;151.102;2022-10-17T15:41:55;11.20;99.90
39453;DHT22;25154;-33.684;151.102;2022-10-17T15:47:01;11.00;99.90
39453;DHT22;25154;-33.684;151.102;2022-10-17T15:52:04;11.00;99.90
39453;DHT22;25154;-33.684;151.102;2022-10-17T15:57:16;10.80;99.90
39453;DHT22;25154;-33.684;151.102;2022-10-17T16:02:20;11.70;99.90
39453;DHT22;25154;-33.684;151.102;2022-10-17T16:07:24;10.90;99.90
39453;DHT22;25154;-33.684;151.102;2022-10-17T16:12:28;11.00;99.90
39453;DHT22;25154;-33.684;151.102;2022-10-17T16:17:32;11.00;99.90
39453;DHT22;25154;-33.684;151.102;2022-10-17T16:22:34;11.00;99.90
39453;DHT22;25154;-33.684;151.102;2022-10-17T16:27:42;11.10;99.90
39453;DHT22;25154;-33.684;151.102;2022-10-17T16:32:45;11.00;99.90
39453;DHT22;25154;-33.684;151.102;2022-10-17T16:43:55;10.90;99.90
39453;DHT22;25154;-33.684;151.102;2022-10-17T16:48:59;10.90;99.90
39453;DHT22;25154;-33.684;151.102;2022-10-17T16:54:02;12.00;99.90
39453;DHT22;25154;-33.684;151.102;2022-10-17T16:59:05;10.80;99.90
39453;DHT22;25154;-33.684;151.102;2022-10-17T17:04:07;10.80;99.90
39453;DHT22;25154;-33.684;151.102;2022-10-17T17:09:10;11.10;99.90
39453;DHT22;25154;-33.684;151.102;2022-10-17T17:14:13;11.10;99.90
39453;DHT22;25154;-33.684;151.102;2022-10-17T17:19:15;11.10;99.90
39453;DHT22;25154;-33.684;151.102;2022-10-17T17:24:19;11.10;99.90
39453;DHT22;25154;-33.684;151.102;2022-10-17T17:29:23;11.00;99.90
39453;DHT22;25154;-33.684;151.102;2022-10-17T17:34:26;11.10;99.90
39453;DHT22;25154;-33.684;151.102;2022-10-17T17:39:28;11.20;99.90
39453;DHT22;25154;-33.684;151.102;2022-10-17T17:44:30;11.30;99.90
39453;DHT22;25154;-33.684;151.102;2022-10-17T17:49:33;11.40;99.90
39453;DHT22;25154;-33.684;151.102;2022-10-17T17:54:35;11.50;99.90
39453;DHT22;25154;-33.684;151.102;2022-10-17T17:59:38;11.70;99.90
39453;DHT22;25154;-33.684;151.102;2022-10-17T18:04:43;11.80;99.90
39453;DHT22;25154;-33.684;151.102;2022-10-17T18:09:46;12.00;99.90
39453;DHT22;25154;-33.684;151.102;2022-10-17T18:14:50;12.00;99.90
39453;DHT22;25154;-33.684;151.102;2022-10-17T18:19:52;12.10;99.90
39453;DHT22;25154;-33.684;151.102;2022-10-17T18:24:55;12.20;99.90
39453;DHT22;25154;-33.684;151.102;2022-10-17T18:29:58;12.20;99.90
39453;DHT22;25154;-33.684;151.102;2022-10-17T18:35:01;12.30;99.90
39453;DHT22;25154;-33.684;151.102;2022-10-17T18:40:03;12.30;99.90
39453;DHT22;25154;-33.684;151.102;2022-10-17T18:45:06;12.30;99.90
39453;DHT22;25154;-33.684;151.102;2022-10-17T18:50:09;12.20;99.90
39453;DHT22;25154;-33.684;151.102;2022-10-17T18:55:11;12.20;99.90
39453;DHT22;25154;-33.684;151.102;2022-10-17T19:00:15;12.20;99.90
39453;DHT22;25154;-33.684;151.102;2022-10-17T19:05:18;12.20;99.90
39453;DHT22;25154;-33.684;151.102;2022-10-17T19:10:20;12.30;99.90
39453;DHT22;25154;-33.684;151.102;2022-10-17T19:15:22;12.40;99.90
39453;DHT22;25154;-33.684;151.102;2022-10-17T19:20:25;12.50;99.90
39453;DHT22;25154;-33.684;151.102;2022-10-17T19:25:27;12.40;99.90
39453;DHT22;25154;-33.684;151.102;2022-10-17T19:30:30;12.60;99.90
39453;DHT22;25154;-33.684;151.102;2022-10-17T19:35:33;12.60;99.90
39453;DHT22;25154;-33.684;151.102;2022-10-17T19:40:39;12.60;99.90
39453;DHT22;25154;-33.684;151.102;2022-10-17T19:45:42;12.70;99.90
39453;DHT22;25154;-33.684;151.102;2022-10-17T19:50:44;12.70;99.90
39453;DHT22;25154;-33.684;151.102;2022-10-17T19:55:46;12.80;99.90
39453;DHT22;25154;-33.684;151.102;2022-10-17T20:00:54;12.90;99.90
39453;DHT22;25154;-33.684;151.102;2022-10-17T20:05:57;13.00;99.90
39453;DHT22;25154;-33.684;151.102;2022-10-17T20:11:09;13.10;99.90
39453;DHT22;25154;-33.684;151.102;2022-10-17T20:16:17;13.30;99.90
39453;DHT22;25154;-33.684;151.102;2022-10-17T20:21:24;13.50;99.90
39453;DHT22;25154;-33.684;151.102;2022-10-17T20:26:28;13.60;99.90
39453;DHT22;25154;-33.684;151.102;2022-10-17T20:31:31;13.60;99.90
39453;DHT22;25154;-33.684;151.102;2022-10-17T20:36:34;13.70;99.90
39453;DHT22;25154;-33.684;151.102;2022-10-17T20:41:37;13.70;99.90
39453;DHT22;25154;-33.684;151.102;2022-10-17T20:46:40;13.90;99.90
39453;DHT22;25154;-33.684;151.102;2022-10-17T20:51:42;14.10;99.90
39453;DHT22;25154;-33.684;151.102;2022-10-17T20:56:45;14.30;99.90
39453;DHT22;25154;-33.684;151.102;2022-10-17T21:01:47;14.50;99.90
39453;DHT22;25154;-33.684;151.102;2022-10-17T21:06:50;14.60;99.90
39453;DHT22;25154;-33.684;151.102;2022-10-17T21:11:52;14.70;99.90
39453;DHT22;25154;-33.684;151.102;2022-10-17T21:16:59;17.70;99.90
39453;DHT22;25154;-33.684;151.102;2022-10-17T21:22:01;15.50;99.90
39453;DHT22;25154;-33.684;151.102;2022-10-17T21:27:05;15.80;99.90
39453;DHT22;25154;-33.684;151.102;2022-10-17T21:32:08;16.00;99.90
39453;DHT22;25154;-33.684;151.102;2022-10-17T21:37:11;16.20;99.90
39453;DHT22;25154;-33.684;151.102;2022-10-17T21:42:13;16.40;99.90
39453;DHT22;25154;-33.684;151.102;2022-10-17T21:47:19;16.40;99.90
39453;DHT22;25154;-33.684;151.102;2022-10-17T21:52:23;16.50;99.90
39453;DHT22;25154;-33.684;151.102;2022-10-17T21:57:26;16.80;99.90
39453;DHT22;25154;-33.684;151.102;2022-10-17T22:02:31;17.20;99.90
39453;DHT22;25154;-33.684;151.102;2022-10-17T22:07:34;17.40;99.90
39453;DHT22;25154;-33.684;151.102;2022-10-17T22:12:37;17.60;99.90
39453;DHT22;25154;-33.684;151.102;2022-10-17T22:17:39;18.00;99.90
39453;DHT22;25154;-33.684;151.102;2022-10-17T22:22:42;18.30;99.90
39453;DHT22;25154;-33.684;151.102;2022-10-17T22:27:44;17.30;99.90
39453;DHT22;25154;-33.684;151.102;2022-10-17T22:32:46;18.00;99.90
39453;DHT22;25154;-33.684;151.102;2022-10-17T22:37:49;17.80;99.90
39453;DHT22;25154;-33.684;151.102;2022-10-17T22:42:52;17.70;99.90
39453;DHT22;25154;-33.684;151.102;2022-10-17T22:47:55;18.10;99.90
39453;DHT22;25154;-33.684;151.102;2022-10-17T22:52:58;18.50;99.90
39453;DHT22;25154;-33.684;151.102;2022-10-17T22:58:03;18.70;99.90
39453;DHT22;25154;-33.684;151.102;2022-10-17T23:03:05;18.90;99.90
39453;DHT22;25154;-33.684;151.102;2022-10-17T23:08:08;19.00;99.90
39453;DHT22;25154;-33.684;151.102;2022-10-17T23:13:10;18.90;99.90
39453;DHT22;25154;-33.684;151.102;2022-10-17T23:18:13;19.00;99.90
39453;DHT22;25154;-33.684;151.102;2022-10-17T23:23:15;18.80;99.90
39453;DHT22;25154;-33.684;151.102;2022-10-17T23:28:19;18.50;99.90
39453;DHT22;25154;-33.684;151.102;2022-10-17T23:33:21;18.60;99.90
39453;DHT22;25154;-33.684;151.102;2022-10-17T23:38:24;18.90;99.90
39453;DHT22;25154;-33.684;151.102;2022-10-17T23:43:26;18.60;99.90
39453;DHT22;25154;-33.684;151.102;2022-10-17T23:48:29;18.20;99.90
39453;DHT22;25154;-33.684;151.102;2022-10-17T23:53:31;17.50;99.90
39453;DHT22;25154;-33.684;151.102;2022-10-17T23:58:34;17.20;99.90
